sensor_id;sensor_type;location;lat;lon;timestamp;P1;durP1;ratioP1;P2;durP2;ratioP2
15358;SDS011;7779;49.596;11.070;2023-07-22T00:01:00;2.57;;;2.37;;
15358;SDS011;7779;49.596;11.070;2023-07-22T00:03:27;3.10;;;2.80;;
15358;SDS011;7779;49.596;11.070;2023-07-22T00:06:03;4.37;;;2.60;;
15358;SDS011;7779;49.596;11.070;2023-07-22T00:08:34;2.97;;;2.67;;
15358;SDS011;7779;49.596;11.070;2023-07-22T00:11:05;3.50;;;2.50;;
15358;SDS011;7779;49.596;11.070;2023-07-22T00:13:32;3.40;;;2.50;;
15358;SDS011;7779;49.596;11.070;2023-07-22T00:15:59;2.00;;;1.80;;
15358;SDS011;7779;49.596;11.070;2023-07-22T00:18:29;2.40;;;2.20;;
15358;SDS011;7779;49.596;11.070;2023-07-22T00:20:56;2.50;;;2.30;;
15358;SDS011;7779;49.596;11.070;2023-07-22T00:23:22;3.43;;;2.30;;
15358;SDS011;7779;49.596;11.070;2023-07-22T00:25:48;3.80;;;2.30;;
15358;SDS011;7779;49.596;11.070;2023-07-22T00:28:14;3.13;;;2.50;;
15358;SDS011;7779;49.596;11.070;2023-07-22T00:30:40;2.50;;;2.27;;
15358;SDS011;7779;49.596;11.070;2023-07-22T00:33:07;3.50;;;2.83;;
15358;SDS011;7779;49.596;11.070;2023-07-22T00:35:34;3.17;;;2.80;;
15358;SDS011;7779;49.596;11.070;2023-07-22T00:38:00;2.77;;;2.37;;
15358;SDS011;7779;49.596;11.070;2023-07-22T00:40:27;2.83;;;2.47;;
15358;SDS011;7779;49.596;11.070;2023-07-22T00:42:55;2.67;;;2.20;;
15358;SDS011;7779;49.596;11.070;2023-07-22T00:45:21;2.77;;;2.23;;
15358;SDS011;7779;49.596;11.070;2023-07-22T00:47:47;2.80;;;2.60;;
15358;SDS011;7779;49.596;11.070;2023-07-22T00:50:13;2.90;;;2.37;;
15358;SDS011;7779;49.596;11.070;2023-07-22T00:52:39;3.07;;;2.27;;
15358;SDS011;7779;49.596;11.070;2023-07-22T00:55:05;2.90;;;2.10;;
15358;SDS011;7779;49.596;11.070;2023-07-22T00:57:32;4.90;;;2.47;;
15358;SDS011;7779;49.596;11.070;2023-07-22T00:59:58;3.30;;;2.20;;
15358;SDS011;7779;49.596;11.070;2023-07-22T01:02:24;3.40;;;2.57;;
15358;SDS011;7779;49.596;11.070;2023-07-22T01:04:50;2.43;;;2.17;;
15358;SDS011;7779;49.596;11.070;2023-07-22T01:07:19;2.57;;;2.37;;
15358;SDS011;7779;49.596;11.070;2023-07-22T01:09:45;2.90;;;2.07;;
15358;SDS011;7779;49.596;11.070;2023-07-22T01:12:11;2.40;;;2.20;;
15358;SDS011;7779;49.596;11.070;2023-07-22T01:14:38;2.57;;;2.37;;
15358;SDS011;7779;49.596;11.070;2023-07-22T01:17:06;3.30;;;2.53;;
15358;SDS011;7779;49.596;11.070;2023-07-22T01:19:35;2.50;;;2.30;;
15358;SDS011;7779;49.596;11.070;2023-07-22T01:22:02;2.50;;;2.20;;
15358;SDS011;7779;49.596;11.070;2023-07-22T01:24:30;2.57;;;2.20;;
15358;SDS011;7779;49.596;11.070;2023-07-22T01:26:56;2.53;;;2.10;;
15358;SDS011;7779;49.596;11.070;2023-07-22T01:29:23;2.53;;;2.33;;
15358;SDS011;7779;49.596;11.070;2023-07-22T01:31:53;2.73;;;2.30;;
15358;SDS011;7779;49.596;11.070;2023-07-22T01:34:20;2.57;;;2.30;;
15358;SDS011;7779;49.596;11.070;2023-07-22T01:36:47;2.50;;;2.30;;
15358;SDS011;7779;49.596;11.070;2023-07-22T01:39:14;2.53;;;2.33;;
15358;SDS011;7779;49.596;11.070;2023-07-22T01:41:42;2.57;;;2.20;;
15358;SDS011;7779;49.596;11.070;2023-07-22T01:44:08;2.80;;;2.20;;
15358;SDS011;7779;49.596;11.070;2023-07-22T01:46:34;3.97;;;2.50;;
15358;SDS011;7779;49.596;11.070;2023-07-22T01:49:03;2.47;;;2.27;;
15358;SDS011;7779;49.596;11.070;2023-07-22T01:51:31;2.97;;;2.47;;
15358;SDS011;7779;49.596;11.070;2023-07-22T01:53:57;3.00;;;2.27;;
15358;SDS011;7779;49.596;11.070;2023-07-22T01:56:23;3.40;;;2.70;;
15358;SDS011;7779;49.596;11.070;2023-07-22T01:58:49;2.17;;;1.97;;
15358;SDS011;7779;49.596;11.070;2023-07-22T02:01:15;5.43;;;2.60;;
15358;SDS011;7779;49.596;11.070;2023-07-22T02:03:41;2.40;;;2.03;;
15358;SDS011;7779;49.596;11.070;2023-07-22T02:06:07;2.40;;;2.10;;
15358;SDS011;7779;49.596;11.070;2023-07-22T02:08:33;2.37;;;2.03;;
15358;SDS011;7779;49.596;11.070;2023-07-22T02:11:04;2.60;;;2.40;;
15358;SDS011;7779;49.596;11.070;2023-07-22T02:13:32;2.30;;;2.10;;
15358;SDS011;7779;49.596;11.070;2023-07-22T02:15:59;2.97;;;2.50;;
15358;SDS011;7779;49.596;11.070;2023-07-22T02:18:26;2.40;;;2.20;;
15358;SDS011;7779;49.596;11.070;2023-07-22T02:20:53;2.10;;;1.90;;
15358;SDS011;7779;49.596;11.070;2023-07-22T02:23:20;2.17;;;1.80;;
15358;SDS011;7779;49.596;11.070;2023-07-22T02:25:53;2.37;;;2.17;;
15358;SDS011;7779;49.596;11.070;2023-07-22T02:28:20;2.77;;;1.93;;
15358;SDS011;7779;49.596;11.070;2023-07-22T02:30:47;2.77;;;2.07;;
15358;SDS011;7779;49.596;11.070;2023-07-22T02:33:14;2.57;;;2.13;;
15358;SDS011;7779;49.596;11.070;2023-07-22T02:35:40;3.00;;;2.37;;
15358;SDS011;7779;49.596;11.070;2023-07-22T02:38:06;2.60;;;2.23;;
15358;SDS011;7779;49.596;11.070;2023-07-22T02:40:36;3.50;;;2.20;;
15358;SDS011;7779;49.596;11.070;2023-07-22T02:43:03;2.57;;;2.20;;
15358;SDS011;7779;49.596;11.070;2023-07-22T02:45:29;2.47;;;1.90;;
15358;SDS011;7779;49.596;11.070;2023-07-22T02:47:55;3.07;;;2.10;;
15358;SDS011;7779;49.596;11.070;2023-07-22T02:50:20;2.40;;;2.13;;
15358;SDS011;7779;49.596;11.070;2023-07-22T02:52:46;2.77;;;2.10;;
15358;SDS011;7779;49.596;11.070;2023-07-22T02:55:13;2.40;;;2.20;;
15358;SDS011;7779;49.596;11.070;2023-07-22T02:57:44;2.40;;;2.20;;
15358;SDS011;7779;49.596;11.070;2023-07-22T03:00:11;2.63;;;2.37;;
15358;SDS011;7779;49.596;11.070;2023-07-22T03:02:39;2.50;;;2.30;;
15358;SDS011;7779;49.596;11.070;2023-07-22T03:05:05;2.13;;;1.93;;
15358;SDS011;7779;49.596;11.070;2023-07-22T03:07:39;3.50;;;2.10;;
15358;SDS011;7779;49.596;11.070;2023-07-22T03:10:05;3.13;;;2.20;;
15358;SDS011;7779;49.596;11.070;2023-07-22T03:12:32;2.60;;;2.10;;
15358;SDS011;7779;49.596;11.070;2023-07-22T03:14:59;2.07;;;1.87;;
15358;SDS011;7779;49.596;11.070;2023-07-22T03:17:25;3.63;;;2.10;;
15358;SDS011;7779;49.596;11.070;2023-07-22T03:19:51;2.67;;;2.23;;
15358;SDS011;7779;49.596;11.070;2023-07-22T03:22:17;2.20;;;2.00;;
15358;SDS011;7779;49.596;11.070;2023-07-22T03:24:44;2.50;;;2.30;;
15358;SDS011;7779;49.596;11.070;2023-07-22T03:27:10;2.60;;;2.20;;
15358;SDS011;7779;49.596;11.070;2023-07-22T03:29:38;2.20;;;2.00;;
15358;SDS011;7779;49.596;11.070;2023-07-22T03:32:04;2.70;;;1.87;;
15358;SDS011;7779;49.596;11.070;2023-07-22T03:34:31;2.10;;;1.90;;
15358;SDS011;7779;49.596;11.070;2023-07-22T03:36:57;2.47;;;2.20;;
15358;SDS011;7779;49.596;11.070;2023-07-22T03:39:24;2.87;;;2.13;;
15358;SDS011;7779;49.596;11.070;2023-07-22T03:41:50;2.47;;;2.03;;
15358;SDS011;7779;49.596;11.070;2023-07-22T03:44:16;2.40;;;2.20;;
15358;SDS011;7779;49.596;11.070;2023-07-22T03:46:42;2.37;;;2.03;;
15358;SDS011;7779;49.596;11.070;2023-07-22T03:49:07;2.27;;;2.03;;
15358;SDS011;7779;49.596;11.070;2023-07-22T03:51:33;2.40;;;2.10;;
15358;SDS011;7779;49.596;11.070;2023-07-22T03:53:59;3.33;;;2.20;;
15358;SDS011;7779;49.596;11.070;2023-07-22T03:56:25;3.17;;;2.10;;
15358;SDS011;7779;49.596;11.070;2023-07-22T03:58:51;2.23;;;2.03;;
15358;SDS011;7779;49.596;11.070;2023-07-22T04:01:18;2.23;;;2.03;;
15358;SDS011;7779;49.596;11.070;2023-07-22T04:03:44;2.33;;;2.10;;
15358;SDS011;7779;49.596;11.070;2023-07-22T04:06:10;2.23;;;2.03;;
15358;SDS011;7779;49.596;11.070;2023-07-22T04:08:36;2.40;;;2.20;;
15358;SDS011;7779;49.596;11.070;2023-07-22T04:11:02;2.10;;;1.90;;
15358;SDS011;7779;49.596;11.070;2023-07-22T04:13:28;2.40;;;2.20;;
15358;SDS011;7779;49.596;11.070;2023-07-22T04:15:54;2.87;;;2.53;;
15358;SDS011;7779;49.596;11.070;2023-07-22T04:18:20;2.33;;;2.13;;
15358;SDS011;7779;49.596;11.070;2023-07-22T04:20:47;2.63;;;2.30;;
15358;SDS011;7779;49.596;11.070;2023-07-22T04:23:16;2.43;;;2.23;;
15358;SDS011;7779;49.596;11.070;2023-07-22T04:25:42;2.50;;;2.30;;
15358;SDS011;7779;49.596;11.070;2023-07-22T04:28:09;3.17;;;2.13;;
15358;SDS011;7779;49.596;11.070;2023-07-22T04:30:35;3.10;;;2.47;;
15358;SDS011;7779;49.596;11.070;2023-07-22T04:33:02;2.40;;;2.20;;
15358;SDS011;7779;49.596;11.070;2023-07-22T04:35:33;3.83;;;2.37;;
15358;SDS011;7779;49.596;11.070;2023-07-22T04:38:03;2.90;;;2.23;;
15358;SDS011;7779;49.596;11.070;2023-07-22T04:40:29;2.90;;;2.43;;
15358;SDS011;7779;49.596;11.070;2023-07-22T04:42:55;2.63;;;2.27;;
15358;SDS011;7779;49.596;11.070;2023-07-22T04:45:22;2.40;;;2.20;;
15358;SDS011;7779;49.596;11.070;2023-07-22T04:47:51;2.30;;;2.10;;
15358;SDS011;7779;49.596;11.070;2023-07-22T04:50:17;2.53;;;2.27;;
15358;SDS011;7779;49.596;11.070;2023-07-22T04:52:46;2.17;;;1.93;;
15358;SDS011;7779;49.596;11.070;2023-07-22T04:55:13;2.40;;;2.10;;
15358;SDS011;7779;49.596;11.070;2023-07-22T04:57:40;2.30;;;2.03;;
15358;SDS011;7779;49.596;11.070;2023-07-22T05:00:07;3.20;;;2.57;;
15358;SDS011;7779;49.596;11.070;2023-07-22T05:02:39;2.30;;;2.10;;
15358;SDS011;7779;49.596;11.070;2023-07-22T05:05:06;2.60;;;2.07;;
15358;SDS011;7779;49.596;11.070;2023-07-22T05:07:32;2.70;;;2.30;;
15358;SDS011;7779;49.596;11.070;2023-07-22T05:09:58;2.60;;;2.40;;
15358;SDS011;7779;49.596;11.070;2023-07-22T05:12:23;3.03;;;2.20;;
15358;SDS011;7779;49.596;11.070;2023-07-22T05:14:49;3.67;;;2.20;;
15358;SDS011;7779;49.596;11.070;2023-07-22T05:17:15;2.30;;;2.00;;
15358;SDS011;7779;49.596;11.070;2023-07-22T05:19:41;2.53;;;2.30;;
15358;SDS011;7779;49.596;11.070;2023-07-22T05:22:06;2.27;;;1.90;;
15358;SDS011;7779;49.596;11.070;2023-07-22T05:24:32;2.53;;;2.17;;
15358;SDS011;7779;49.596;11.070;2023-07-22T05:26:58;2.87;;;2.33;;
15358;SDS011;7779;49.596;11.070;2023-07-22T05:29:24;3.00;;;2.70;;
15358;SDS011;7779;49.596;11.070;2023-07-22T05:31:50;2.70;;;2.10;;
15358;SDS011;7779;49.596;11.070;2023-07-22T05:34:16;4.60;;;2.23;;
15358;SDS011;7779;49.596;11.070;2023-07-22T05:36:42;2.87;;;2.33;;
15358;SDS011;7779;49.596;11.070;2023-07-22T05:39:07;3.47;;;2.27;;
15358;SDS011;7779;49.596;11.070;2023-07-22T05:41:33;2.50;;;2.30;;
15358;SDS011;7779;49.596;11.070;2023-07-22T05:43:59;2.87;;;2.57;;
15358;SDS011;7779;49.596;11.070;2023-07-22T05:46:25;2.93;;;2.20;;
15358;SDS011;7779;49.596;11.070;2023-07-22T05:48:51;3.47;;;2.40;;
15358;SDS011;7779;49.596;11.070;2023-07-22T05:51:17;3.73;;;2.50;;
15358;SDS011;7779;49.596;11.070;2023-07-22T05:53:43;2.67;;;2.30;;
15358;SDS011;7779;49.596;11.070;2023-07-22T05:56:09;4.03;;;2.20;;
15358;SDS011;7779;49.596;11.070;2023-07-22T05:58:35;2.43;;;2.13;;
15358;SDS011;7779;49.596;11.070;2023-07-22T06:01:01;4.40;;;2.40;;
15358;SDS011;7779;49.596;11.070;2023-07-22T06:03:27;2.40;;;2.20;;
15358;SDS011;7779;49.596;11.070;2023-07-22T06:05:53;2.97;;;2.23;;
15358;SDS011;7779;49.596;11.070;2023-07-22T06:08:19;3.03;;;2.20;;
15358;SDS011;7779;49.596;11.070;2023-07-22T06:10:44;2.83;;;2.37;;
15358;SDS011;7779;49.596;11.070;2023-07-22T06:13:10;3.10;;;2.20;;
15358;SDS011;7779;49.596;11.070;2023-07-22T06:15:36;2.70;;;2.50;;
15358;SDS011;7779;49.596;11.070;2023-07-22T06:18:02;4.90;;;2.40;;
15358;SDS011;7779;49.596;11.070;2023-07-22T06:20:28;3.43;;;2.27;;
15358;SDS011;7779;49.596;11.070;2023-07-22T06:22:54;2.37;;;2.17;;
15358;SDS011;7779;49.596;11.070;2023-07-22T06:25:20;2.37;;;2.17;;
15358;SDS011;7779;49.596;11.070;2023-07-22T06:27:46;3.17;;;2.13;;
15358;SDS011;7779;49.596;11.070;2023-07-22T06:30:11;2.60;;;2.10;;
15358;SDS011;7779;49.596;11.070;2023-07-22T06:32:37;3.03;;;2.50;;
15358;SDS011;7779;49.596;11.070;2023-07-22T06:35:04;2.10;;;1.90;;
15358;SDS011;7779;49.596;11.070;2023-07-22T06:37:31;3.27;;;2.40;;
15358;SDS011;7779;49.596;11.070;2023-07-22T06:39:56;3.13;;;2.10;;
15358;SDS011;7779;49.596;11.070;2023-07-22T06:42:22;2.30;;;2.10;;
15358;SDS011;7779;49.596;11.070;2023-07-22T06:44:48;1.93;;;1.83;;
15358;SDS011;7779;49.596;11.070;2023-07-22T06:47:14;2.30;;;2.10;;
15358;SDS011;7779;49.596;11.070;2023-07-22T06:49:40;2.50;;;2.30;;
15358;SDS011;7779;49.596;11.070;2023-07-22T06:52:06;3.43;;;2.30;;
15358;SDS011;7779;49.596;11.070;2023-07-22T06:54:32;2.07;;;1.93;;
15358;SDS011;7779;49.596;11.070;2023-07-22T06:56:59;2.73;;;2.50;;
15358;SDS011;7779;49.596;11.070;2023-07-22T06:59:25;4.33;;;2.40;;
15358;SDS011;7779;49.596;11.070;2023-07-22T07:01:51;2.40;;;2.20;;
15358;SDS011;7779;49.596;11.070;2023-07-22T07:04:17;2.53;;;2.27;;
15358;SDS011;7779;49.596;11.070;2023-07-22T07:06:43;2.60;;;2.40;;
15358;SDS011;7779;49.596;11.070;2023-07-22T07:09:11;2.60;;;2.40;;
15358;SDS011;7779;49.596;11.070;2023-07-22T07:11:37;2.77;;;2.00;;
15358;SDS011;7779;49.596;11.070;2023-07-22T07:14:03;2.73;;;2.53;;
15358;SDS011;7779;49.596;11.070;2023-07-22T07:16:30;3.40;;;2.60;;
15358;SDS011;7779;49.596;11.070;2023-07-22T07:18:57;2.77;;;2.47;;
15358;SDS011;7779;49.596;11.070;2023-07-22T07:21:24;2.50;;;2.30;;
15358;SDS011;7779;49.596;11.070;2023-07-22T07:23:50;2.93;;;2.63;;
15358;SDS011;7779;49.596;11.070;2023-07-22T07:26:18;2.50;;;2.30;;
15358;SDS011;7779;49.596;11.070;2023-07-22T07:28:44;2.87;;;2.57;;
15358;SDS011;7779;49.596;11.070;2023-07-22T07:31:11;3.57;;;2.63;;
15358;SDS011;7779;49.596;11.070;2023-07-22T07:33:37;3.50;;;2.40;;
15358;SDS011;7779;49.596;11.070;2023-07-22T07:36:03;3.30;;;2.70;;
15358;SDS011;7779;49.596;11.070;2023-07-22T07:38:29;2.43;;;2.20;;
15358;SDS011;7779;49.596;11.070;2023-07-22T07:40:56;3.20;;;2.53;;
15358;SDS011;7779;49.596;11.070;2023-07-22T07:43:24;2.83;;;2.40;;
15358;SDS011;7779;49.596;11.070;2023-07-22T07:45:50;3.00;;;2.60;;
15358;SDS011;7779;49.596;11.070;2023-07-22T07:48:42;2.77;;;2.53;;
15358;SDS011;7779;49.596;11.070;2023-07-22T07:51:13;3.13;;;2.33;;
15358;SDS011;7779;49.596;11.070;2023-07-22T07:53:40;3.03;;;2.50;;
15358;SDS011;7779;49.596;11.070;2023-07-22T07:56:10;3.40;;;2.50;;
15358;SDS011;7779;49.596;11.070;2023-07-22T07:58:37;2.53;;;2.33;;
15358;SDS011;7779;49.596;11.070;2023-07-22T08:01:03;3.00;;;2.70;;
15358;SDS011;7779;49.596;11.070;2023-07-22T08:03:30;3.10;;;2.70;;
15358;SDS011;7779;49.596;11.070;2023-07-22T08:05:56;3.03;;;2.40;;
15358;SDS011;7779;49.596;11.070;2023-07-22T08:08:22;2.90;;;2.60;;
15358;SDS011;7779;49.596;11.070;2023-07-22T08:10:56;2.50;;;2.30;;
15358;SDS011;7779;49.596;11.070;2023-07-22T08:13:33;2.63;;;2.43;;
15358;SDS011;7779;49.596;11.070;2023-07-22T08:16:04;2.77;;;2.57;;
15358;SDS011;7779;49.596;11.070;2023-07-22T08:18:33;2.87;;;2.40;;
15358;SDS011;7779;49.596;11.070;2023-07-22T08:21:04;2.57;;;2.37;;
15358;SDS011;7779;49.596;11.070;2023-07-22T08:23:34;3.47;;;2.53;;
15358;SDS011;7779;49.596;11.070;2023-07-22T08:26:02;2.83;;;2.53;;
15358;SDS011;7779;49.596;11.070;2023-07-22T08:28:30;3.23;;;2.70;;
15358;SDS011;7779;49.596;11.070;2023-07-22T08:30:57;3.10;;;2.80;;
15358;SDS011;7779;49.596;11.070;2023-07-22T08:33:23;3.73;;;2.30;;
15358;SDS011;7779;49.596;11.070;2023-07-22T08:35:50;2.57;;;2.37;;
15358;SDS011;7779;49.596;11.070;2023-07-22T08:38:16;2.57;;;2.37;;
15358;SDS011;7779;49.596;11.070;2023-07-22T08:40:42;2.90;;;2.57;;
15358;SDS011;7779;49.596;11.070;2023-07-22T08:43:09;4.20;;;2.90;;
15358;SDS011;7779;49.596;11.070;2023-07-22T08:45:37;3.53;;;2.73;;
15358;SDS011;7779;49.596;11.070;2023-07-22T08:50:45;3.30;;;2.73;;
15358;SDS011;7779;49.596;11.070;2023-07-22T08:53:18;2.77;;;2.47;;
15358;SDS011;7779;49.596;11.070;2023-07-22T08:55:45;3.43;;;2.93;;
15358;SDS011;7779;49.596;11.070;2023-07-22T08:58:12;3.40;;;2.93;;
15358;SDS011;7779;49.596;11.070;2023-07-22T09:00:39;3.23;;;2.93;;
15358;SDS011;7779;49.596;11.070;2023-07-22T09:03:06;3.13;;;2.80;;
15358;SDS011;7779;49.596;11.070;2023-07-22T09:05:33;3.07;;;2.70;;
15358;SDS011;7779;49.596;11.070;2023-07-22T09:08:02;3.47;;;2.87;;
15358;SDS011;7779;49.596;11.070;2023-07-22T09:10:32;2.87;;;2.63;;
15358;SDS011;7779;49.596;11.070;2023-07-22T09:13:01;3.57;;;2.73;;
15358;SDS011;7779;49.596;11.070;2023-07-22T09:15:28;3.63;;;3.33;;
15358;SDS011;7779;49.596;11.070;2023-07-22T09:17:54;3.17;;;2.87;;
15358;SDS011;7779;49.596;11.070;2023-07-22T09:20:20;3.97;;;3.40;;
15358;SDS011;7779;49.596;11.070;2023-07-22T09:22:48;3.30;;;3.00;;
15358;SDS011;7779;49.596;11.070;2023-07-22T09:25:19;3.37;;;3.07;;
15358;SDS011;7779;49.596;11.070;2023-07-22T09:27:48;3.90;;;3.30;;
15358;SDS011;7779;49.596;11.070;2023-07-22T09:30:29;3.57;;;3.27;;
15358;SDS011;7779;49.596;11.070;2023-07-22T09:33:01;4.03;;;3.60;;
15358;SDS011;7779;49.596;11.070;2023-07-22T09:35:30;3.73;;;3.00;;
15358;SDS011;7779;49.596;11.070;2023-07-22T09:38:09;3.90;;;3.43;;
15358;SDS011;7779;49.596;11.070;2023-07-22T09:40:35;3.60;;;3.30;;
15358;SDS011;7779;49.596;11.070;2023-07-22T09:43:01;3.87;;;3.40;;
15358;SDS011;7779;49.596;11.070;2023-07-22T09:45:30;3.67;;;3.23;;
15358;SDS011;7779;49.596;11.070;2023-07-22T09:47:57;3.97;;;3.57;;
15358;SDS011;7779;49.596;11.070;2023-07-22T09:50:25;4.57;;;3.60;;
15358;SDS011;7779;49.596;11.070;2023-07-22T09:52:52;4.37;;;3.67;;
15358;SDS011;7779;49.596;11.070;2023-07-22T09:55:28;4.13;;;3.60;;
15358;SDS011;7779;49.596;11.070;2023-07-22T10:00:27;6.47;;;3.90;;
15358;SDS011;7779;49.596;11.070;2023-07-22T10:02:58;4.17;;;3.77;;
15358;SDS011;7779;49.596;11.070;2023-07-22T10:05:27;4.13;;;3.73;;
15358;SDS011;7779;49.596;11.070;2023-07-22T10:07:56;3.80;;;3.30;;
15358;SDS011;7779;49.596;11.070;2023-07-22T10:10:29;4.30;;;3.90;;
15358;SDS011;7779;49.596;11.070;2023-07-22T10:12:58;4.67;;;3.83;;
15358;SDS011;7779;49.596;11.070;2023-07-22T10:15:25;4.10;;;3.70;;
15358;SDS011;7779;49.596;11.070;2023-07-22T10:17:54;4.70;;;3.30;;
15358;SDS011;7779;49.596;11.070;2023-07-22T10:20:21;3.50;;;3.17;;
15358;SDS011;7779;49.596;11.070;2023-07-22T10:22:49;3.40;;;3.10;;
15358;SDS011;7779;49.596;11.070;2023-07-22T10:25:16;3.90;;;3.50;;
15358;SDS011;7779;49.596;11.070;2023-07-22T10:27:45;3.47;;;3.17;;
15358;SDS011;7779;49.596;11.070;2023-07-22T10:30:14;3.33;;;3.03;;
15358;SDS011;7779;49.596;11.070;2023-07-22T10:32:42;3.67;;;3.37;;
15358;SDS011;7779;49.596;11.070;2023-07-22T10:35:12;3.50;;;3.20;;
15358;SDS011;7779;49.596;11.070;2023-07-22T10:37:46;3.97;;;3.33;;
15358;SDS011;7779;49.596;11.070;2023-07-22T10:43:26;3.33;;;2.80;;
15358;SDS011;7779;49.596;11.070;2023-07-22T10:45:41;2.93;;;2.73;;
15358;SDS011;7779;49.596;11.070;2023-07-22T10:48:09;3.37;;;3.07;;
15358;SDS011;7779;49.596;11.070;2023-07-22T10:50:38;2.97;;;2.77;;
15358;SDS011;7779;49.596;11.070;2023-07-22T10:53:19;3.90;;;3.20;;
15358;SDS011;7779;49.596;11.070;2023-07-22T10:56:07;3.70;;;2.60;;
15358;SDS011;7779;49.596;11.070;2023-07-22T11:01:43;3.17;;;2.50;;
15358;SDS011;7779;49.596;11.070;2023-07-22T11:04:22;2.73;;;2.33;;
15358;SDS011;7779;49.596;11.070;2023-07-22T11:14:25;4.27;;;2.17;;
15358;SDS011;7779;49.596;11.070;2023-07-22T11:16:54;2.20;;;2.00;;
15358;SDS011;7779;49.596;11.070;2023-07-22T11:19:23;3.80;;;2.70;;
15358;SDS011;7779;49.596;11.070;2023-07-22T11:21:50;3.50;;;2.73;;
15358;SDS011;7779;49.596;11.070;2023-07-22T11:24:18;4.07;;;2.30;;
15358;SDS011;7779;49.596;11.070;2023-07-22T11:26:48;2.60;;;2.40;;
15358;SDS011;7779;49.596;11.070;2023-07-22T11:29:15;1.90;;;1.80;;
15358;SDS011;7779;49.596;11.070;2023-07-22T11:31:42;3.03;;;2.30;;
15358;SDS011;7779;49.596;11.070;2023-07-22T11:34:18;3.50;;;2.00;;
15358;SDS011;7779;49.596;11.070;2023-07-22T11:36:47;2.33;;;2.13;;
15358;SDS011;7779;49.596;11.070;2023-07-22T11:39:16;2.17;;;1.97;;
15358;SDS011;7779;49.596;11.070;2023-07-22T11:41:47;3.07;;;2.10;;
15358;SDS011;7779;49.596;11.070;2023-07-22T11:44:15;3.17;;;2.10;;
15358;SDS011;7779;49.596;11.070;2023-07-22T11:49:46;4.23;;;2.40;;
15358;SDS011;7779;49.596;11.070;2023-07-22T11:52:17;1.80;;;1.67;;
15358;SDS011;7779;49.596;11.070;2023-07-22T11:54:43;2.37;;;2.17;;
15358;SDS011;7779;49.596;11.070;2023-07-22T11:59:44;2.17;;;1.80;;
15358;SDS011;7779;49.596;11.070;2023-07-22T12:02:27;2.13;;;1.67;;
15358;SDS011;7779;49.596;11.070;2023-07-22T12:04:55;1.73;;;1.63;;
15358;SDS011;7779;49.596;11.070;2023-07-22T12:07:28;2.33;;;1.73;;
15358;SDS011;7779;49.596;11.070;2023-07-22T12:10:00;1.73;;;1.60;;
15358;SDS011;7779;49.596;11.070;2023-07-22T12:12:33;2.10;;;1.90;;
15358;SDS011;7779;49.596;11.070;2023-07-22T12:17:59;4.03;;;2.00;;
15358;SDS011;7779;49.596;11.070;2023-07-22T12:20:27;2.60;;;2.00;;
15358;SDS011;7779;49.596;11.070;2023-07-22T12:23:02;2.03;;;1.80;;
15358;SDS011;7779;49.596;11.070;2023-07-22T12:25:28;1.73;;;1.63;;
15358;SDS011;7779;49.596;11.070;2023-07-22T12:27:54;1.97;;;1.50;;
15358;SDS011;7779;49.596;11.070;2023-07-22T12:30:20;2.57;;;2.00;;
15358;SDS011;7779;49.596;11.070;2023-07-22T12:32:47;2.00;;;1.80;;
15358;SDS011;7779;49.596;11.070;2023-07-22T12:35:13;1.97;;;1.73;;
15358;SDS011;7779;49.596;11.070;2023-07-22T12:37:38;1.90;;;1.60;;
15358;SDS011;7779;49.596;11.070;2023-07-22T12:40:04;1.70;;;1.50;;
15358;SDS011;7779;49.596;11.070;2023-07-22T12:42:33;1.70;;;1.60;;
15358;SDS011;7779;49.596;11.070;2023-07-22T12:45:01;1.30;;;1.20;;
15358;SDS011;7779;49.596;11.070;2023-07-22T12:47:28;1.53;;;1.43;;
15358;SDS011;7779;49.596;11.070;2023-07-22T12:49:54;1.83;;;1.30;;
15358;SDS011;7779;49.596;11.070;2023-07-22T12:52:19;1.63;;;1.20;;
15358;SDS011;7779;49.596;11.070;2023-07-22T12:54:45;1.53;;;1.23;;
15358;SDS011;7779;49.596;11.070;2023-07-22T12:57:11;2.53;;;1.80;;
15358;SDS011;7779;49.596;11.070;2023-07-22T12:59:36;1.60;;;1.50;;
15358;SDS011;7779;49.596;11.070;2023-07-22T13:02:02;1.47;;;1.30;;
15358;SDS011;7779;49.596;11.070;2023-07-22T13:04:28;1.53;;;1.30;;
15358;SDS011;7779;49.596;11.070;2023-07-22T13:06:54;2.77;;;1.40;;
15358;SDS011;7779;49.596;11.070;2023-07-22T13:09:19;1.40;;;1.30;;
15358;SDS011;7779;49.596;11.070;2023-07-22T13:11:45;1.30;;;1.00;;
15358;SDS011;7779;49.596;11.070;2023-07-22T13:14:11;1.67;;;1.43;;
15358;SDS011;7779;49.596;11.070;2023-07-22T13:16:42;1.40;;;1.30;;
15358;SDS011;7779;49.596;11.070;2023-07-22T13:19:07;1.73;;;1.50;;
15358;SDS011;7779;49.596;11.070;2023-07-22T13:21:34;1.50;;;1.40;;
15358;SDS011;7779;49.596;11.070;2023-07-22T13:23:59;1.90;;;1.30;;
15358;SDS011;7779;49.596;11.070;2023-07-22T13:26:25;3.43;;;1.60;;
15358;SDS011;7779;49.596;11.070;2023-07-22T13:28:51;1.57;;;1.43;;
15358;SDS011;7779;49.596;11.070;2023-07-22T13:31:19;1.67;;;1.57;;
15358;SDS011;7779;49.596;11.070;2023-07-22T13:33:45;1.80;;;1.50;;
15358;SDS011;7779;49.596;11.070;2023-07-22T13:36:10;1.57;;;1.40;;
15358;SDS011;7779;49.596;11.070;2023-07-22T13:38:36;1.93;;;1.70;;
15358;SDS011;7779;49.596;11.070;2023-07-22T13:41:02;1.60;;;1.50;;
15358;SDS011;7779;49.596;11.070;2023-07-22T13:43:28;1.27;;;1.17;;
15358;SDS011;7779;49.596;11.070;2023-07-22T13:45:54;2.00;;;1.40;;
15358;SDS011;7779;49.596;11.070;2023-07-22T13:48:19;1.87;;;1.50;;
15358;SDS011;7779;49.596;11.070;2023-07-22T13:50:45;1.40;;;1.30;;
15358;SDS011;7779;49.596;11.070;2023-07-22T13:53:11;1.40;;;1.30;;
15358;SDS011;7779;49.596;11.070;2023-07-22T13:55:37;1.37;;;1.20;;
15358;SDS011;7779;49.596;11.070;2023-07-22T13:58:02;1.83;;;1.57;;
15358;SDS011;7779;49.596;11.070;2023-07-22T14:00:28;1.40;;;1.30;;
15358;SDS011;7779;49.596;11.070;2023-07-22T14:02:54;1.87;;;1.50;;
15358;SDS011;7779;49.596;11.070;2023-07-22T14:05:19;2.47;;;1.40;;
15358;SDS011;7779;49.596;11.070;2023-07-22T14:07:45;1.57;;;1.40;;
15358;SDS011;7779;49.596;11.070;2023-07-22T14:10:11;1.30;;;1.20;;
15358;SDS011;7779;49.596;11.070;2023-07-22T14:12:36;1.47;;;1.30;;
15358;SDS011;7779;49.596;11.070;2023-07-22T14:15:02;2.00;;;1.17;;
15358;SDS011;7779;49.596;11.070;2023-07-22T14:17:31;1.50;;;1.40;;
15358;SDS011;7779;49.596;11.070;2023-07-22T14:19:57;1.57;;;1.47;;
15358;SDS011;7779;49.596;11.070;2023-07-22T14:22:24;1.60;;;1.50;;
15358;SDS011;7779;49.596;11.070;2023-07-22T14:24:49;2.80;;;1.20;;
15358;SDS011;7779;49.596;11.070;2023-07-22T14:27:15;1.30;;;1.20;;
15358;SDS011;7779;49.596;11.070;2023-07-22T14:29:41;1.20;;;1.10;;
15358;SDS011;7779;49.596;11.070;2023-07-22T14:32:07;1.60;;;1.50;;
15358;SDS011;7779;49.596;11.070;2023-07-22T14:34:33;2.03;;;1.40;;
15358;SDS011;7779;49.596;11.070;2023-07-22T14:36:59;1.47;;;1.30;;
15358;SDS011;7779;49.596;11.070;2023-07-22T14:39:25;1.37;;;1.20;;
15358;SDS011;7779;49.596;11.070;2023-07-22T14:41:51;1.50;;;1.20;;
15358;SDS011;7779;49.596;11.070;2023-07-22T14:44:18;1.40;;;1.30;;
15358;SDS011;7779;49.596;11.070;2023-07-22T14:46:44;1.73;;;1.63;;
15358;SDS011;7779;49.596;11.070;2023-07-22T14:49:09;1.60;;;1.40;;
15358;SDS011;7779;49.596;11.070;2023-07-22T14:51:35;2.77;;;1.27;;
15358;SDS011;7779;49.596;11.070;2023-07-22T14:54:02;1.80;;;1.50;;
15358;SDS011;7779;49.596;11.070;2023-07-22T14:56:28;1.60;;;1.33;;
15358;SDS011;7779;49.596;11.070;2023-07-22T14:58:54;2.80;;;1.30;;
15358;SDS011;7779;49.596;11.070;2023-07-22T15:01:21;1.30;;;1.20;;
15358;SDS011;7779;49.596;11.070;2023-07-22T15:03:47;1.53;;;1.27;;
15358;SDS011;7779;49.596;11.070;2023-07-22T15:06:13;1.23;;;1.10;;
15358;SDS011;7779;49.596;11.070;2023-07-22T15:08:39;1.20;;;1.10;;
15358;SDS011;7779;49.596;11.070;2023-07-22T15:11:04;2.40;;;1.40;;
15358;SDS011;7779;49.596;11.070;2023-07-22T15:13:30;1.57;;;1.20;;
15358;SDS011;7779;49.596;11.070;2023-07-22T15:15:56;1.70;;;1.20;;